Time;durP1;ratioP1;P1;durP2;ratioP2;P2;SDS_P1;SDS_P2;PMS_P1;PMS_P2;Temp;Humidity;BMP_temperature;BMP_pressure;BME280_temperature;BME280_humidity;BME280_pressure;Samples;Min_cycle;Max_cycle;Signal;HPM_P1;HPM_P2
2022/11/09 00:01:25;;;;;;;10.73;6.10;;;9.70;99.90;9.00;99895;;;;581573;244;24090;-82
2022/11/09 00:03:56;;;;;;;9.00;6.77;;;9.70;99.90;9.00;99890;;;;578369;244;24134;-80
2022/11/09 00:06:26;;;;;;;9.40;6.10;;;9.60;99.90;8.90;99889;;;;578987;244;24103;-80
2022/11/09 00:08:54;;;;;;;12.00;7.22;;;9.60;99.90;8.90;99891;;;;574226;244;35175;-81
2022/11/09 00:11:22;;;;;;;9.30;6.70;;;9.60;99.90;8.90;99888;;;;579620;244;24101;-82
2022/11/09 00:13:50;;;;;;;11.50;6.10;;;9.60;99.90;8.90;99883;;;;579648;244;24214;-81
2022/11/09 00:16:18;;;;;;;8.93;5.57;;;9.60;99.90;8.90;99890;;;;580069;244;24085;-81
2022/11/09 00:18:47;;;;;;;9.83;5.83;;;9.60;99.90;8.90;99889;;;;580215;244;24104;-81
2022/11/09 00:21:15;;;;;;;10.60;5.97;;;9.60;99.90;8.90;99879;;;;579702;244;24119;-82
2022/11/09 00:23:43;;;;;;;11.37;5.50;;;9.60;99.90;8.90;99891;;;;566536;248;24120;-80
2022/11/09 00:26:14;;;;;;;8.97;6.00;;;9.60;99.90;8.90;99890;;;;578926;244;24109;-80
2022/11/09 00:28:42;;;;;;;12.30;6.00;;;9.60;99.90;8.90;99880;;;;579018;244;24072;-80
2022/11/09 00:31:09;;;;;;;8.13;5.97;;;9.60;99.90;8.90;99879;;;;578780;244;24122;-80
2022/11/09 00:33:40;;;;;;;8.80;6.50;;;9.60;99.90;8.90;99885;;;;583040;243;24102;-80
2022/11/09 00:36:08;;;;;;;8.33;5.83;;;9.60;99.90;8.90;99887;;;;579819;244;24102;-80
2022/11/09 00:38:39;;;;;;;12.33;5.07;;;9.60;99.90;8.90;99887;;;;582487;244;24107;-80
2022/11/09 00:41:08;;;;;;;9.37;5.70;;;9.60;99.90;8.90;99882;;;;580167;244;24075;-82
2022/11/09 00:43:32;;;;;;;9.60;5.63;;;9.60;99.90;8.90;99889;;;;579792;244;24109;-81
2022/11/09 00:46:00;;;;;;;9.43;6.20;;;9.60;99.90;8.90;99890;;;;567209;249;24134;-82
2022/11/09 00:48:31;;;;;;;14.63;6.10;;;9.60;99.90;9.00;99887;;;;588973;243;24118;-80
2022/11/09 00:50:59;;;;;;;8.23;5.83;;;9.70;99.90;9.00;99880;;;;579524;244;24142;-81
2022/11/09 00:53:27;;;;;;;7.97;5.43;;;9.70;99.90;9.00;99871;;;;579561;244;24079;-81
2022/11/09 00:55:58;;;;;;;9.53;6.10;;;9.70;99.90;9.10;99870;;;;579157;244;24072;-81
2022/11/09 00:58:26;;;;;;;10.60;5.77;;;9.70;99.90;9.10;99871;;;;579513;244;24090;-81
2022/11/09 01:00:54;;;;;;;7.80;5.70;;;9.80;99.90;9.10;99875;;;;582265;244;24132;-81
2022/11/09 01:03:26;;;;;;;6.63;5.10;;;9.80;99.90;9.10;99865;;;;579490;244;24081;-80
2022/11/09 01:05:50;;;;;;;10.30;5.50;;;9.80;99.90;9.10;99871;;;;575358;244;24071;-81
2022/11/09 01:08:19;;;;;;;7.80;5.83;;;9.80;99.90;9.20;99866;;;;579523;244;24082;-80
2022/11/09 01:10:50;;;;;;;10.13;5.97;;;9.80;99.90;9.20;99866;;;;579239;244;24059;-82
2022/11/09 01:13:15;;;;;;;12.83;6.03;;;9.80;99.90;9.20;99869;;;;578814;244;24133;-81
2022/11/09 01:15:45;;;;;;;12.23;5.80;;;9.80;99.90;9.20;99872;;;;579278;244;24126;-82
2022/11/09 01:18:13;;;;;;;10.07;6.03;;;9.90;99.90;9.30;99863;;;;588205;244;24067;-80
2022/11/09 01:20:45;;;;;;;9.67;6.87;;;9.90;99.90;9.30;99860;;;;579213;244;24062;-80
2022/11/09 01:23:12;;;;;;;11.43;6.10;;;9.90;99.90;9.30;99863;;;;565900;248;24106;-81
2022/11/09 01:25:37;;;;;;;10.20;6.53;;;9.90;99.90;9.30;99864;;;;578812;244;24102;-81
2022/11/09 01:28:09;;;;;;;10.17;6.40;;;9.90;99.90;9.30;99858;;;;587994;244;24168;-81
2022/11/09 01:30:37;;;;;;;12.40;6.37;;;9.90;99.90;9.20;99857;;;;578591;244;24078;-81
2022/11/09 01:33:05;;;;;;;8.77;5.60;;;9.90;99.90;9.20;99871;;;;578876;244;24077;-81
2022/11/09 01:35:36;;;;;;;8.20;5.90;;;9.90;99.90;9.20;99863;;;;579077;244;24071;-82
2022/11/09 01:38:04;;;;;;;6.93;5.73;;;9.90;99.90;9.20;99867;;;;579396;244;24070;-82
2022/11/09 01:40:36;;;;;;;12.33;6.87;;;9.90;99.90;9.20;99868;;;;588225;244;24222;-81
2022/11/09 01:43:15;;;;;;;8.37;5.40;;;9.90;99.90;9.20;99860;;;;579168;244;24094;-81
2022/11/09 01:45:47;;;;;;;9.10;5.80;;;9.90;99.90;9.20;99869;;;;589638;242;24092;-81
2022/11/09 01:48:12;;;;;;;10.13;5.80;;;9.90;99.90;9.20;99866;;;;579902;244;24094;-80
2022/11/09 01:50:40;;;;;;;10.27;6.50;;;9.90;99.90;9.20;99867;;;;579726;244;24143;-80
2022/11/09 01:53:08;;;;;;;7.97;5.93;;;9.80;99.90;9.20;99869;;;;579464;244;24117;-80
2022/11/09 01:55:36;;;;;;;12.17;6.20;;;9.80;99.90;9.20;99865;;;;579791;244;24113;-81
2022/11/09 01:58:08;;;;;;;9.20;5.83;;;9.80;99.90;9.20;99857;;;;587310;244;24108;-81
2022/11/09 02:00:37;;;;;;;8.67;5.57;;;9.80;99.90;9.20;99866;;;;588696;244;24114;-80
2022/11/09 02:03:05;;;;;;;8.73;5.47;;;9.80;99.90;9.20;99872;;;;566372;248;24088;-80
2022/11/09 02:05:33;;;;;;;10.30;6.33;;;9.90;99.90;9.20;99885;;;;579268;244;24117;-81
2022/11/09 02:08:04;;;;;;;13.10;7.00;;;9.80;99.90;9.20;99873;;;;579270;244;24114;-81
2022/11/09 02:10:38;;;;;;;9.43;6.43;;;9.90;99.90;9.30;99875;;;;579523;244;24056;-82
2022/11/09 02:13:06;;;;;;;11.80;6.30;;;9.90;99.90;9.30;99870;;;;565689;249;24115;-81
2022/11/09 02:15:34;;;;;;;10.13;5.87;;;10.00;99.90;9.30;99856;;;;581658;244;24067;-80
2022/11/09 02:18:06;;;;;;;7.93;6.33;;;10.00;99.90;9.30;99850;;;;579110;244;24062;-81
2022/11/09 02:20:30;;;;;;;12.77;7.93;;;10.00;99.90;9.30;99849;;;;573736;244;35198;-80
2022/11/09 02:22:57;;;;;;;12.73;6.43;;;10.00;99.90;9.30;99858;;;;578938;244;24115;-80
2022/11/09 02:25:27;;;;;;;12.47;6.30;;;10.00;99.90;9.40;99864;;;;588347;244;24128;-82
2022/11/09 02:27:55;;;;;;;10.23;6.30;;;10.00;99.90;9.40;99862;;;;566504;249;24106;-81
2022/11/09 02:30:23;;;;;;;11.90;6.30;;;10.10;99.90;9.40;99862;;;;588276;243;24114;-81
2022/11/09 02:32:50;;;;;;;9.13;6.33;;;10.00;99.90;9.40;99862;;;;588343;244;24072;-82
2022/11/09 02:35:18;;;;;;;8.80;6.27;;;10.00;99.90;9.40;99874;;;;588591;244;24089;-81
2022/11/09 02:37:49;;;;;;;8.17;6.60;;;10.10;99.90;9.40;99867;;;;588707;244;24075;-82
2022/11/09 02:40:20;;;;;;;9.30;6.33;;;10.00;99.90;9.40;99870;;;;579647;244;24055;-81
2022/11/09 02:42:48;;;;;;;8.53;5.67;;;10.00;99.90;9.40;99874;;;;579296;244;24111;-81
2022/11/09 02:45:16;;;;;;;10.77;6.00;;;10.00;99.90;9.30;99875;;;;588445;244;24057;-81
2022/11/09 02:47:44;;;;;;;13.77;6.70;;;10.00;99.90;9.30;99872;;;;579403;244;24070;-81
2022/11/09 02:50:13;;;;;;;12.13;6.40;;;10.00;99.90;9.30;99864;;;;588437;244;24048;-81
2022/11/09 02:52:41;;;;;;;9.87;6.47;;;10.00;99.90;9.30;99855;;;;588304;244;24065;-82
2022/11/09 02:55:09;;;;;;;11.43;6.83;;;9.90;99.90;9.30;99844;;;;588545;242;24084;-82
2022/11/09 02:57:36;;;;;;;9.50;6.37;;;9.90;99.90;9.30;99842;;;;578654;244;24142;-81
2022/11/09 03:00:04;;;;;;;9.90;6.03;;;9.90;99.90;9.20;99856;;;;588969;243;24066;-81
2022/11/09 03:02:32;;;;;;;8.33;5.77;;;9.90;99.90;9.20;99854;;;;588436;244;24079;-82
2022/11/09 03:05:00;;;;;;;11.80;7.00;;;9.90;99.90;9.20;99859;;;;579776;244;24118;-81
2022/11/09 03:07:28;;;;;;;9.83;5.90;;;9.90;99.90;9.20;99840;;;;579453;244;24099;-82
2022/11/09 03:09:56;;;;;;;11.20;6.20;;;9.90;99.90;9.20;99833;;;;588983;244;24062;-80
2022/11/09 03:12:30;;;;;;;10.30;7.13;;;9.80;99.90;9.20;99840;;;;588871;244;24054;-80
2022/11/09 03:15:03;;;;;;;12.70;6.57;;;9.80;99.90;9.20;99847;;;;588896;243;24190;-80
2022/11/09 03:17:28;;;;;;;11.93;7.17;;;9.90;99.90;9.20;99848;;;;579306;244;24129;-82
2022/11/09 03:19:56;;;;;;;6.87;5.80;;;9.90;99.90;9.20;99853;;;;580069;244;24077;-82
2022/11/09 03:22:24;;;;;;;11.87;6.90;;;9.90;99.90;9.20;99855;;;;589059;243;24118;-83
2022/11/09 03:24:52;;;;;;;12.27;6.27;;;9.90;99.90;9.20;99842;;;;579707;244;24073;-82
2022/11/09 03:27:20;;;;;;;11.67;6.60;;;9.90;99.90;9.20;99854;;;;579714;244;24074;-81
2022/11/09 03:29:48;;;;;;;10.70;7.30;;;9.90;99.90;9.20;99841;;;;588628;243;24204;-81
2022/11/09 03:32:16;;;;;;;11.57;7.20;;;9.90;99.90;9.20;99839;;;;588899;244;24130;-81
2022/11/09 03:34:44;;;;;;;10.03;7.10;;;9.80;99.90;9.10;99834;;;;579734;244;24173;-81
2022/11/09 03:37:12;;;;;;;9.47;6.33;;;9.80;99.90;9.10;99826;;;;588651;244;24071;-81
2022/11/09 03:39:40;;;;;;;13.50;7.60;;;9.80;99.90;9.10;99830;;;;588519;244;24066;-82
2022/11/09 03:42:07;;;;;;;11.70;6.87;;;9.70;99.90;9.00;99831;;;;588499;244;24072;-81
2022/11/09 03:44:36;;;;;;;11.30;6.67;;;9.70;99.90;9.00;99837;;;;588580;244;24067;-81
2022/11/09 03:47:04;;;;;;;13.27;7.27;;;9.70;99.90;9.00;99833;;;;588427;244;24109;-81
2022/11/09 03:49:32;;;;;;;15.87;7.93;;;9.70;99.90;9.00;99822;;;;588447;244;24413;-82
2022/11/09 03:52:00;;;;;;;10.23;6.73;;;9.70;99.90;9.00;99823;;;;588552;244;24127;-81
2022/11/09 03:54:28;;;;;;;12.17;7.43;;;9.70;99.90;9.00;99818;;;;588441;244;24076;-81
2022/11/09 03:56:56;;;;;;;9.17;7.50;;;9.70;99.90;9.00;99818;;;;588590;244;24064;-79
2022/11/09 03:59:24;;;;;;;13.00;6.80;;;9.70;99.90;9.00;99824;;;;588972;244;24150;-81
2022/11/09 04:01:51;;;;;;;9.63;7.10;;;9.70;99.90;9.00;99826;;;;579506;244;24163;-80
2022/11/09 04:04:19;;;;;;;13.37;7.73;;;9.70;99.90;8.90;99820;;;;588239;244;24108;-80
2022/11/09 04:06:47;;;;;;;8.37;6.50;;;9.60;99.90;8.90;99822;;;;579897;242;24063;-80
2022/11/09 04:09:15;;;;;;;10.43;7.30;;;9.60;99.90;8.90;99826;;;;581079;244;24134;-80
2022/11/09 04:11:44;;;;;;;11.40;8.23;;;9.60;99.90;8.80;99820;;;;589351;243;24089;-80
2022/11/09 04:14:12;;;;;;;11.47;7.57;;;9.50;99.90;8.80;99805;;;;588691;243;24091;-81
2022/11/09 04:16:40;;;;;;;10.97;6.97;;;9.50;99.90;8.70;99807;;;;588977;243;24117;-80
2022/11/09 04:19:07;;;;;;;10.70;7.40;;;9.50;99.90;8.70;99813;;;;588295;243;24119;-81
2022/11/09 04:21:35;;;;;;;12.63;7.43;;;9.40;99.90;8.70;99812;;;;579406;244;24151;-81
2022/11/09 04:24:07;;;;;;;10.03;7.40;;;9.40;99.90;8.70;99801;;;;588271;244;24060;-81
2022/11/09 04:26:35;;;;;;;16.90;8.63;;;9.40;99.90;8.70;99807;;;;578744;244;24078;-81
2022/11/09 04:28:59;;;;;;;14.73;7.57;;;9.40;99.90;8.70;99804;;;;579842;244;24064;-81
2022/11/09 04:31:27;;;;;;;11.83;7.87;;;9.40;99.90;8.70;99802;;;;588382;243;24066;-79
2022/11/09 04:33:55;;;;;;;13.80;7.67;;;9.30;99.90;8.70;99800;;;;588335;244;24108;-82
2022/11/09 04:36:23;;;;;;;12.00;7.67;;;9.30;99.90;8.70;99797;;;;579414;244;24107;-81
2022/11/09 04:38:51;;;;;;;14.03;8.40;;;9.40;99.90;8.70;99796;;;;588454;243;24112;-80
2022/11/09 04:41:19;;;;;;;10.77;7.63;;;9.40;99.90;8.70;99807;;;;579445;244;24073;-81
2022/11/09 04:43:47;;;;;;;15.70;8.43;;;9.40;99.90;8.70;99799;;;;589202;244;24113;-82
2022/11/09 04:46:14;;;;;;;14.10;8.07;;;9.40;99.90;8.70;99805;;;;588774;244;24079;-80
2022/11/09 04:48:43;;;;;;;12.53;8.50;;;9.40;99.90;8.80;99805;;;;588753;244;24052;-80
2022/11/09 04:51:11;;;;;;;16.40;8.43;;;9.40;99.90;8.80;99801;;;;588884;244;24114;-82
2022/11/09 04:53:40;;;;;;;13.47;9.07;;;9.40;99.90;8.80;99802;;;;567429;249;24101;-82
2022/11/09 04:56:08;;;;;;;16.70;8.33;;;9.40;99.90;8.80;99805;;;;580308;244;24091;-81
2022/11/09 04:58:36;;;;;;;13.20;7.90;;;9.40;99.90;8.80;99801;;;;589313;244;24118;-83
2022/11/09 05:01:07;;;;;;;13.07;7.77;;;9.40;99.90;8.70;99796;;;;580125;244;24081;-82
2022/11/09 05:03:38;;;;;;;15.47;9.17;;;9.40;99.90;8.70;99796;;;;588874;244;24152;-82
2022/11/09 05:06:30;;;;;;;14.50;8.43;;;9.40;99.90;8.70;99792;;;;579518;244;24083;-84
2022/11/09 05:08:32;;;;;;;14.60;8.63;;;9.40;99.90;8.60;99803;;;;579854;244;24114;-83
2022/11/09 05:11:00;;;;;;;14.33;8.83;;;9.30;99.90;8.60;99798;;;;588684;244;24079;-83
2022/11/09 05:13:27;;;;;;;20.13;9.63;;;9.30;99.90;8.50;99802;;;;589296;244;24088;-82
2022/11/09 05:15:55;;;;;;;15.60;8.83;;;9.20;99.90;8.50;99799;;;;576066;248;24104;-81
2022/11/09 05:18:23;;;;;;;15.40;8.53;;;9.10;99.90;8.40;99803;;;;576139;247;24125;-82
2022/11/09 05:20:52;;;;;;;14.93;8.83;;;9.10;99.90;8.40;99806;;;;590839;242;24054;-81
2022/11/09 05:26:06;;;;;;;13.20;9.10;;;9.00;99.90;8.30;99812;;;;580281;244;24094;-81
2022/11/09 05:28:34;;;;;;;23.80;9.83;;;8.90;99.90;8.20;99798;;;;588920;243;24096;-81
2022/11/09 05:31:02;;;;;;;12.47;8.23;;;8.90;99.90;8.20;99810;;;;580367;244;24198;-83
2022/11/09 05:33:30;;;;;;;15.20;10.17;;;8.90;99.90;8.20;99804;;;;580471;244;24053;-86
2022/11/09 05:35:58;;;;;;;17.63;10.17;;;8.80;99.90;8.10;99805;;;;588973;243;24128;-81
2022/11/09 05:38:26;;;;;;;12.30;8.87;;;8.80;99.90;8.10;99808;;;;579631;244;24099;-81
2022/11/09 05:40:54;;;;;;;17.00;9.87;;;8.80;99.90;8.10;99818;;;;588459;243;24073;-81
2022/11/09 05:43:22;;;;;;;14.87;9.33;;;8.80;99.90;8.00;99817;;;;579473;244;24137;-81
2022/11/09 05:45:50;;;;;;;13.50;9.57;;;8.70;99.90;8.00;99804;;;;588426;243;24047;-80
2022/11/09 05:48:19;;;;;;;12.70;8.80;;;8.70;99.90;7.90;99822;;;;588410;243;24103;-81
2022/11/09 05:50:47;;;;;;;14.47;8.63;;;8.60;99.90;7.90;99802;;;;588564;244;24085;-81
2022/11/09 05:53:15;;;;;;;20.50;10.43;;;8.60;99.90;7.80;99800;;;;588578;243;24067;-81
2022/11/09 05:55:42;;;;;;;19.93;9.40;;;8.50;99.90;7.80;99793;;;;588097;243;24113;-78
2022/11/09 05:58:14;;;;;;;17.67;9.60;;;8.50;99.90;7.80;99800;;;;588401;244;24080;-81
2022/11/09 06:00:38;;;;;;;18.70;10.10;;;8.50;99.90;7.80;99789;;;;588169;244;24104;-81
2022/11/09 06:03:06;;;;;;;17.90;9.83;;;8.50;99.90;7.90;99790;;;;579303;244;24094;-84
2022/11/09 06:05:37;;;;;;;16.97;9.07;;;8.50;99.90;7.90;99796;;;;579250;244;24099;-82
2022/11/09 06:08:05;;;;;;;13.53;9.23;;;8.60;99.90;7.90;99797;;;;578895;244;24097;-82
2022/11/09 06:10:33;;;;;;;16.30;9.43;;;8.60;99.90;8.00;99801;;;;579316;244;24204;-81
2022/11/09 06:13:00;;;;;;;19.17;10.17;;;8.70;99.90;8.00;99795;;;;578756;244;24089;-81
2022/11/09 06:15:31;;;;;;;16.07;9.97;;;8.70;99.90;8.10;99793;;;;578522;244;24092;-80
2022/11/09 06:17:59;;;;;;;17.17;9.97;;;8.80;99.90;8.10;99811;;;;578285;244;24084;-80
2022/11/09 06:20:27;;;;;;;15.67;9.77;;;8.80;99.90;8.20;99799;;;;578361;244;24083;-80
2022/11/09 06:22:59;;;;;;;17.23;10.33;;;8.90;99.90;8.20;99817;;;;581148;244;24167;-81
2022/11/09 06:25:30;;;;;;;18.60;10.70;;;8.90;99.90;8.30;99810;;;;578542;244;24100;-81
2022/11/09 06:27:58;;;;;;;19.70;9.57;;;8.90;99.90;8.30;99820;;;;578730;244;24130;-80
2022/11/09 06:30:23;;;;;;;15.97;10.10;;;9.00;99.90;8.40;99811;;;;579442;243;24089;-81
2022/11/09 06:32:51;;;;;;;18.13;10.17;;;9.00;99.90;8.40;99809;;;;579781;244;24176;-80
2022/11/09 06:35:19;;;;;;;14.77;9.63;;;9.10;99.90;8.40;99810;;;;588885;243;24067;-80
2022/11/09 06:37:46;;;;;;;18.23;9.97;;;9.10;99.90;8.50;99826;;;;588552;243;24067;-81
2022/11/09 06:40:14;;;;;;;20.50;10.20;;;9.10;99.90;8.50;99830;;;;588514;243;24062;-81
2022/11/09 06:42:42;;;;;;;15.67;9.93;;;9.20;99.90;8.50;99822;;;;579297;244;24123;-82
2022/11/09 06:45:10;;;;;;;17.30;10.10;;;9.20;99.90;8.60;99835;;;;588003;244;24062;-81
2022/11/09 06:47:38;;;;;;;28.03;10.83;;;9.20;99.90;8.60;99820;;;;588235;243;24123;-82
2022/11/09 06:50:10;;;;;;;15.03;9.83;;;9.30;99.90;8.60;99813;;;;587857;243;24076;-82
2022/11/09 06:52:37;;;;;;;24.73;11.30;;;9.30;99.90;8.60;99810;;;;578538;244;24146;-81
2022/11/09 06:55:05;;;;;;;22.40;10.63;;;9.30;99.90;8.60;99825;;;;578430;244;24114;-80
2022/11/09 06:57:30;;;;;;;19.67;9.57;;;9.30;99.90;8.60;99823;;;;578861;244;24075;-82
2022/11/09 06:59:59;;;;;;;20.47;11.53;;;9.30;99.90;8.70;99826;;;;581875;244;24049;-82
2022/11/09 07:02:26;;;;;;;19.87;10.30;;;9.40;99.90;8.70;99826;;;;588262;244;24065;-82
2022/11/09 07:04:54;;;;;;;23.67;10.20;;;9.40;99.90;8.80;99828;;;;579273;244;25155;-81
2022/11/09 07:07:22;;;;;;;15.77;10.90;;;9.50;99.90;8.80;99827;;;;579309;244;24265;-83
2022/11/09 07:09:50;;;;;;;15.87;11.17;;;9.50;99.90;8.90;99827;;;;588294;244;24061;-81
2022/11/09 07:12:19;;;;;;;14.67;10.80;;;9.60;99.90;8.90;99826;;;;588382;244;24124;-80
2022/11/09 07:14:47;;;;;;;17.20;10.53;;;9.60;99.90;8.90;99819;;;;587814;244;24119;-82
2022/11/09 07:17:14;;;;;;;17.57;10.23;;;9.60;99.90;8.90;99822;;;;587888;244;24068;-83
2022/11/09 07:19:42;;;;;;;15.10;9.83;;;9.60;99.90;8.90;99826;;;;588041;244;24070;-82
2022/11/09 07:22:10;;;;;;;27.33;10.50;;;9.60;99.90;8.90;99831;;;;588127;244;24078;-80
2022/11/09 07:24:38;;;;;;;22.83;10.97;;;9.50;99.90;8.80;99828;;;;578672;244;24064;-81
2022/11/09 07:27:06;;;;;;;17.27;9.50;;;9.50;99.90;8.80;99826;;;;587662;244;24082;-81
2022/11/09 07:29:35;;;;;;;17.57;11.03;;;9.40;99.90;8.70;99831;;;;587518;244;24115;-83
2022/11/09 07:32:03;;;;;;;16.17;9.90;;;9.40;99.90;8.70;99833;;;;578515;244;24095;-82
2022/11/09 07:34:31;;;;;;;19.93;10.53;;;9.30;99.90;8.70;99831;;;;578947;244;24073;-81
2022/11/09 07:36:59;;;;;;;14.17;9.90;;;9.40;99.90;8.70;99825;;;;587932;244;24075;-80
2022/11/09 07:39:26;;;;;;;16.37;9.10;;;9.40;99.90;8.80;99829;;;;588161;244;24056;-81
2022/11/09 07:41:55;;;;;;;14.97;9.77;;;9.40;99.90;9.00;99824;;;;588593;242;24113;-81
2022/11/09 07:44:22;;;;;;;17.13;10.07;;;9.60;99.90;9.20;99823;;;;580332;244;24089;-81
2022/11/09 07:46:50;;;;;;;19.80;9.90;;;9.80;99.90;9.30;99821;;;;580136;244;24163;-81
2022/11/09 07:49:18;;;;;;;19.47;10.77;;;9.90;99.90;9.50;99811;;;;588694;243;24074;-80
2022/11/09 07:51:46;;;;;;;16.70;10.67;;;10.10;99.90;9.60;99822;;;;588642;243;24222;-80
2022/11/09 07:54:14;;;;;;;15.50;9.30;;;10.20;99.90;9.70;99823;;;;588491;243;24099;-80
2022/11/09 07:56:42;;;;;;;20.97;10.90;;;10.30;99.90;9.80;99819;;;;579638;244;24056;-81
2022/11/09 07:59:10;;;;;;;15.90;10.30;;;10.40;99.90;10.00;99821;;;;588639;243;24134;-81
2022/11/09 08:01:40;;;;;;;16.90;10.40;;;10.70;99.90;10.20;99826;;;;588246;243;24056;-81
2022/11/09 08:04:11;;;;;;;13.60;11.07;;;10.70;99.90;10.30;99829;;;;587988;243;24064;-83
2022/11/09 08:06:36;;;;;;;19.60;11.10;;;10.90;99.90;10.50;99835;;;;578851;244;24114;-81
2022/11/09 08:09:04;;;;;;;22.13;10.67;;;11.10;99.90;10.70;99827;;;;579142;244;24141;-81
2022/11/09 08:11:31;;;;;;;16.53;10.33;;;11.30;99.90;10.90;99827;;;;578995;244;24099;-82
2022/11/09 08:13:59;;;;;;;15.43;9.67;;;11.50;99.90;11.00;99827;;;;587891;243;24063;-83
2022/11/09 08:16:27;;;;;;;16.63;9.90;;;11.60;99.90;11.00;99834;;;;588387;243;24065;-83
2022/11/09 08:18:55;;;;;;;18.70;9.80;;;11.70;99.90;11.10;99826;;;;587865;243;24124;-80
2022/11/09 08:21:24;;;;;;;13.80;9.63;;;11.80;99.90;11.20;99818;;;;587751;244;24142;-80
2022/11/09 08:23:52;;;;;;;16.53;10.67;;;11.80;99.90;11.30;99812;;;;587686;244;24072;-80
2022/11/09 08:26:20;;;;;;;18.30;9.87;;;11.90;99.90;11.40;99809;;;;587657;244;24072;-81
2022/11/09 08:28:48;;;;;;;17.77;10.47;;;12.10;99.90;11.60;99824;;;;587568;244;24200;-81
2022/11/09 08:31:16;;;;;;;16.67;10.30;;;12.30;99.90;11.90;99818;;;;587521;244;24099;-81
2022/11/09 08:33:45;;;;;;;13.83;9.90;;;12.60;99.90;12.40;99828;;;;587761;244;24054;-80
2022/11/09 08:36:12;;;;;;;15.90;10.40;;;13.00;99.90;12.90;99827;;;;578667;244;24121;-81
2022/11/09 08:38:40;;;;;;;16.57;10.03;;;13.50;99.90;13.50;99841;;;;578503;244;24057;-81
2022/11/09 08:41:08;;;;;;;11.87;9.97;;;14.10;99.90;13.80;99832;;;;578574;244;24063;-81
2022/11/09 08:43:36;;;;;;;15.43;10.00;;;14.60;99.90;13.90;99832;;;;578658;244;24077;-81
2022/11/09 08:46:04;;;;;;;11.87;9.60;;;14.80;99.90;13.90;99841;;;;578749;244;24088;-82
2022/11/09 08:48:32;;;;;;;13.50;9.57;;;14.80;99.90;13.90;99842;;;;578592;244;24088;-80
2022/11/09 08:51:00;;;;;;;14.20;10.33;;;14.80;99.90;13.80;99833;;;;587813;244;24070;-81
2022/11/09 08:53:28;;;;;;;11.53;8.67;;;14.70;99.90;13.80;99828;;;;588188;242;24084;-80
2022/11/09 08:55:56;;;;;;;15.43;10.10;;;14.70;99.90;14.00;99830;;;;580077;244;24112;-82
2022/11/09 08:58:27;;;;;;;17.03;9.70;;;14.70;99.90;14.70;99844;;;;579725;243;24043;-81
2022/11/09 09:00:52;;;;;;;12.17;9.30;;;15.20;99.90;16.00;99842;;;;579171;244;24091;-80
2022/11/09 09:03:20;;;;;;;14.73;9.90;;;18.00;99.90;17.80;99844;;;;579284;244;24048;-80
2022/11/09 09:05:48;;;;;;;15.67;9.00;;;17.90;99.90;19.60;99858;;;;588481;243;24068;-80
2022/11/09 09:08:20;;;;;;;11.47;8.87;;;19.80;99.90;21.20;99859;;;;588471;243;24266;-81
2022/11/09 09:10:44;;;;;;;11.67;9.57;;;21.50;99.90;22.10;99855;;;;579486;244;23073;-82
2022/11/09 09:13:12;;;;;;;9.63;8.63;;;22.60;99.90;22.80;99853;;;;588088;243;24090;-80
2022/11/09 09:15:40;;;;;;;11.77;9.23;;;23.50;99.90;23.40;99850;;;;587879;243;24052;-80
2022/11/09 09:18:08;;;;;;;14.20;8.43;;;24.20;95.40;22.80;99852;;;;587720;243;24070;-81
2022/11/09 09:20:36;;;;;;;9.53;8.40;;;24.10;93.20;21.70;99841;;;;587885;243;24068;-80
2022/11/09 09:23:04;;;;;;;10.67;8.80;;;23.40;93.30;20.70;99839;;;;587790;243;24040;-80
2022/11/09 09:25:33;;;;;;;10.57;8.67;;;22.50;93.10;20.00;99841;;;;587928;243;24088;-80
2022/11/09 09:28:01;;;;;;;11.03;9.13;;;21.70;93.80;19.30;99845;;;;587898;243;24079;-80
2022/11/09 09:30:29;;;;;;;10.77;9.03;;;20.90;94.80;18.80;99846;;;;587572;243;23101;-79
2022/11/09 09:32:59;;;;;;;10.53;9.27;;;20.20;95.70;18.40;99839;;;;587676;244;24078;-80
2022/11/09 09:35:27;;;;;;;12.37;9.63;;;19.60;97.10;18.00;99840;;;;578572;244;24138;-80
2022/11/09 09:37:56;;;;;;;16.20;9.60;;;19.00;98.50;17.60;99840;;;;578423;244;23112;-80
2022/11/09 09:40:23;;;;;;;12.67;9.50;;;18.60;99.40;17.10;99839;;;;587530;244;24059;-82
2022/11/09 09:42:54;;;;;;;15.77;9.70;;;17.60;99.90;16.60;99846;;;;579041;244;25201;-81
2022/11/09 09:45:20;;;;;;;16.13;9.80;;;17.20;99.90;16.30;99849;;;;578570;244;24114;-81
2022/11/09 09:48:13;;;;;;;16.83;10.60;;;16.70;99.90;15.90;99852;;;;578614;244;24197;-81
2022/11/09 09:50:47;;;;;;;15.27;10.70;;;16.70;99.90;15.60;99855;;;;579010;244;24108;-82
2022/11/09 09:53:17;;;;;;;16.53;8.87;;;16.40;99.90;15.60;99853;;;;578697;244;24059;-81
2022/11/09 09:56:04;;;;;;;12.27;9.40;;;16.20;99.90;15.40;99857;;;;578605;244;24084;-84
2022/11/09 09:58:35;;;;;;;13.77;9.37;;;16.10;99.90;15.30;99846;;;;578543;244;24082;-81
2022/11/09 10:01:14;;;;;;;14.27;9.20;;;16.00;99.90;15.30;99853;;;;587219;244;24179;-81
2022/11/09 10:03:42;;;;;;;13.93;9.20;;;15.90;99.90;15.20;99865;;;;578967;244;24080;-81
2022/11/09 10:06:36;;;;;;;14.80;8.67;;;15.80;99.90;15.10;99872;;;;580448;243;24055;-82
2022/11/09 10:09:29;;;;;;;15.53;8.87;;;15.70;99.90;15.00;99862;;;;580023;244;24079;-83
2022/11/09 10:12:12;;;;;;;15.57;10.00;;;15.60;99.90;15.00;99877;;;;580091;244;24060;-81
2022/11/09 10:15:16;;;;;;;16.33;9.50;;;15.60;99.90;15.10;99875;;;;579505;244;24126;-81
2022/11/09 10:18:21;;;;;;;15.20;9.83;;;15.60;99.90;15.10;99871;;;;579795;244;24071;-82
2022/11/09 10:21:25;;;;;;;10.07;8.00;;;15.70;99.90;15.30;99858;;;;580373;244;24058;-83
2022/11/09 10:23:53;;;;;;;14.20;8.70;;;15.80;99.90;15.40;99843;;;;579753;244;24108;-80
2022/11/09 10:26:39;;;;;;;11.50;8.37;;;16.00;99.90;15.60;99844;;;;583396;244;24068;-82
2022/11/09 10:29:28;;;;;;;12.03;8.93;;;16.10;99.90;15.70;99824;;;;579721;244;24095;-85
2022/11/09 10:31:58;;;;;;;11.80;8.47;;;16.20;99.90;15.70;99831;;;;566298;249;24100;-83
2022/11/09 10:34:30;;;;;;;11.27;8.07;;;16.40;99.90;15.70;99838;;;;565824;249;24110;-82
2022/11/09 10:37:17;;;;;;;11.47;8.53;;;16.20;99.90;15.60;99829;;;;578649;244;24115;-82
2022/11/09 10:39:50;;;;;;;12.33;8.07;;;16.20;99.90;15.40;99838;;;;578528;244;24156;-83
2022/11/09 10:42:19;;;;;;;10.40;8.40;;;16.00;99.90;15.40;99826;;;;574974;244;23225;-82
2022/11/09 10:44:49;;;;;;;11.73;8.90;;;16.00;99.90;15.40;99833;;;;587565;244;24060;-81
2022/11/09 10:47:15;;;;;;;12.37;8.97;;;16.00;99.90;15.40;99841;;;;578376;244;24072;-82
2022/11/09 10:49:46;;;;;;;12.77;8.70;;;16.00;99.90;15.30;99833;;;;578527;244;24084;-81
2022/11/09 10:52:28;;;;;;;17.17;8.93;;;15.90;99.90;15.20;99842;;;;578188;244;24087;-81
2022/11/09 10:54:56;;;;;;;15.30;9.63;;;15.80;99.90;15.10;99843;;;;578627;244;24068;-83
2022/11/09 10:57:25;;;;;;;10.20;8.57;;;15.70;99.90;15.00;99843;;;;573547;244;24095;-79
2022/11/09 10:59:59;;;;;;;13.40;9.30;;;15.70;99.90;14.90;99848;;;;587839;244;24069;-81
2022/11/09 11:02:28;;;;;;;17.77;9.17;;;15.40;99.90;14.80;99839;;;;574982;244;25139;-77
2022/11/09 11:05:05;;;;;;;12.90;9.30;;;15.40;99.90;14.60;99831;;;;577339;244;24126;-81
2022/11/09 11:07:33;;;;;;;15.93;9.83;;;15.20;99.90;14.30;99828;;;;588045;244;24087;-80
2022/11/09 11:10:16;;;;;;;14.53;9.50;;;15.00;99.90;14.10;99835;;;;578876;244;24131;-81
2022/11/09 11:12:59;;;;;;;18.63;9.60;;;14.80;99.90;14.00;99838;;;;579012;244;24082;-80
2022/11/09 11:15:40;;;;;;;12.93;9.07;;;14.50;99.90;13.90;99835;;;;578543;244;24081;-80
2022/11/09 11:18:21;;;;;;;27.43;10.00;;;14.50;99.90;13.70;99845;;;;580068;243;24090;-80
2022/11/09 11:20:49;;;;;;;19.33;9.67;;;14.20;99.90;13.60;99854;;;;579472;244;24063;-80
2022/11/09 11:23:20;;;;;;;18.67;9.83;;;14.20;99.90;13.60;99849;;;;578500;244;24067;-81
2022/11/09 11:25:55;;;;;;;16.07;9.63;;;14.10;99.90;13.50;99847;;;;579647;244;24056;-81
2022/11/09 11:28:31;;;;;;;16.53;9.93;;;14.10;99.90;13.40;99841;;;;579470;244;24055;-80
2022/11/09 11:31:02;;;;;;;12.73;9.33;;;14.00;99.90;13.40;99833;;;;579217;244;24129;-81
2022/11/09 11:33:30;;;;;;;10.70;8.80;;;13.90;99.90;13.30;99834;;;;579147;244;24154;-80